Time;durP1;ratioP1;P1;durP2;ratioP2;P2;SDS_P1;SDS_P2;PMS_P1;PMS_P2;Temp;Humidity;BMP_temperature;BMP_pressure;BME280_temperature;BME280_humidity;BME280_pressure;Samples;Min_cycle;Max_cycle;Signal;HPM_P1;HPM_P2
2022/03/29 00:00:40;;;;;;;;;;;12.80;99.90;;;;;;6243988;23;19912;-73
2022/03/29 00:03:06;;;;;;;;;;;12.80;99.90;;;;;;6216729;23;19910;-71
2022/03/29 00:05:32;;;;;;;;;;;12.80;99.90;;;;;;6244350;23;19948;-72
2022/03/29 00:07:58;;;;;;;;;;;12.80;99.90;;;;;;6244375;23;19903;-73
2022/03/29 00:10:24;;;;;;;;;;;12.90;99.90;;;;;;6245429;23;19910;-73
2022/03/29 00:12:53;;;;;;;;;;;12.80;99.90;;;;;;6245706;23;20247;-73
2022/03/29 00:15:22;;;;;;;;;;;12.80;99.90;;;;;;6245623;23;19903;-72
2022/03/29 00:17:48;;;;;;;;;;;12.80;99.90;;;;;;6245371;23;19947;-74
2022/03/29 00:20:15;;;;;;;;;;;12.90;99.90;;;;;;6245743;23;19911;-73
2022/03/29 00:22:40;;;;;;;;;;;12.90;99.90;;;;;;6245618;23;19995;-74
2022/03/29 00:25:07;;;;;;;;;;;12.90;99.90;;;;;;6246076;23;20321;-73
2022/03/29 00:27:35;;;;;;;;;;;12.80;99.90;;;;;;6245627;23;19910;-73
2022/03/29 00:30:01;;;;;;;;;;;12.90;99.90;;;;;;6245873;23;20122;-73
2022/03/29 00:32:27;;;;;;;;;;;12.90;99.90;;;;;;6245419;23;20237;-72
2022/03/29 00:34:53;;;;;;;;;;;13.00;99.90;;;;;;6245366;23;19904;-74
2022/03/29 00:37:19;;;;;;;;;;;12.90;99.90;;;;;;6245467;23;19912;-73
2022/03/29 00:39:45;;;;;;;;;;;13.00;99.90;;;;;;6245485;23;20201;-73
2022/03/29 00:42:11;;;;;;;;;;;13.00;99.90;;;;;;6245858;23;19922;-74
2022/03/29 00:44:38;;;;;;;;;;;12.90;99.90;;;;;;6218413;23;19970;-72
2022/03/29 00:47:04;;;;;;;;;;;13.00;99.90;;;;;;6245654;23;19982;-74
2022/03/29 00:49:30;;;;;;;;;;;12.90;99.90;;;;;;6245608;23;19915;-73
2022/03/29 00:51:59;;;;;;;;;;;12.90;99.90;;;;;;6245318;23;19919;-74
2022/03/29 00:54:25;;;;;;;;;;;12.90;99.90;;;;;;6245929;23;20366;-73
2022/03/29 00:56:51;;;;;;;;;;;12.80;99.90;;;;;;6245545;23;19904;-73
2022/03/29 00:59:17;;;;;;;;;;;12.80;99.90;;;;;;6245348;23;19922;-73
2022/03/29 01:01:43;;;;;;;;;;;12.90;99.90;;;;;;6218199;23;19903;-73
2022/03/29 01:04:09;;;;;;;;;;;12.80;99.90;;;;;;6245224;23;20331;-74
2022/03/29 01:06:37;;;;;;;;;;;12.80;99.90;;;;;;6245811;23;19904;-73
2022/03/29 01:09:03;;;;;;;;;;;12.80;99.90;;;;;;6245335;23;19915;-74
2022/03/29 01:11:30;;;;;;;;;;;12.90;99.90;;;;;;6245214;23;19904;-73
2022/03/29 01:13:55;;;;;;;;;;;12.90;99.90;;;;;;6245789;23;20182;-73
2022/03/29 01:19:08;;;;;;;;;;;12.90;99.90;;;;;;6245222;23;19966;-73
2022/03/29 01:21:35;;;;;;;;;;;12.90;99.90;;;;;;6244685;23;19923;-72
2022/03/29 01:24:01;;;;;;;;;;;12.90;99.90;;;;;;6245809;23;19914;-73
2022/03/29 01:26:28;;;;;;;;;;;12.90;99.90;;;;;;6245127;23;19960;-74
2022/03/29 01:28:54;;;;;;;;;;;12.90;99.90;;;;;;6245479;23;19903;-73
2022/03/29 01:31:20;;;;;;;;;;;12.80;99.90;;;;;;6244994;23;20280;-73
2022/03/29 01:33:46;;;;;;;;;;;12.90;99.90;;;;;;6245086;23;19904;-73
2022/03/29 01:36:12;;;;;;;;;;;12.80;99.90;;;;;;6245347;23;19911;-73
2022/03/29 01:38:38;;;;;;;;;;;12.90;99.90;;;;;;6244870;23;19911;-71
2022/03/29 01:41:13;;;;;;;;;;;12.80;99.90;;;;;;6244811;23;19986;-74
2022/03/29 01:43:39;;;;;;;;;;;12.80;99.90;;;;;;6244918;23;19904;-74
2022/03/29 01:46:07;;;;;;;;;;;12.80;99.90;;;;;;6244935;23;20012;-72
2022/03/29 01:48:33;;;;;;;;;;;12.70;99.90;;;;;;6245178;23;20349;-72
2022/03/29 01:50:59;;;;;;;;;;;12.70;99.90;;;;;;6245132;23;19911;-72
2022/03/29 01:53:26;;;;;;;;;;;12.70;99.90;;;;;;6245195;23;19904;-74
2022/03/29 01:55:56;;;;;;;;;;;12.70;99.90;;;;;;6217710;23;20201;-73
2022/03/29 01:58:25;;;;;;;;;;;12.60;99.90;;;;;;6244630;23;19934;-73
2022/03/29 02:00:51;;;;;;;;;;;12.70;99.90;;;;;;6245044;23;20010;-73
2022/03/29 02:03:17;;;;;;;;;;;12.80;99.90;;;;;;6244634;23;19908;-71
2022/03/29 02:05:44;;;;;;;;;;;12.80;99.90;;;;;;6245249;23;19981;-73
2022/03/29 02:08:09;;;;;;;;;;;12.80;99.90;;;;;;6244719;23;19959;-72
2022/03/29 02:10:35;;;;;;;;;;;12.80;99.90;;;;;;6244634;23;19990;-72
2022/03/29 02:13:01;;;;;;;;;;;12.80;99.90;;;;;;6244602;23;19907;-72
2022/03/29 02:15:27;;;;;;;;;;;12.80;99.90;;;;;;6244628;23;19967;-73
2022/03/29 02:17:53;;;;;;;;;;;12.70;99.90;;;;;;6212053;23;19951;-73
2022/03/29 02:20:19;;;;;;;;;;;12.70;99.90;;;;;;6214196;23;19908;-72
2022/03/29 02:22:46;;;;;;;;;;;12.70;99.90;;;;;;6214267;23;20301;-72
2022/03/29 02:25:12;;;;;;;;;;;12.80;99.90;;;;;;6214585;23;19904;-73
2022/03/29 02:27:38;;;;;;;;;;;12.80;99.90;;;;;;6214498;23;19904;-73
2022/03/29 02:30:05;;;;;;;;;;;12.80;99.90;;;;;;6212349;23;19915;-73
2022/03/29 02:32:31;;;;;;;;;;;12.80;99.90;;;;;;6214159;23;19910;-73
2022/03/29 02:34:57;;;;;;;;;;;12.80;99.90;;;;;;6214239;23;19943;-72
2022/03/29 02:37:23;;;;;;;;;;;12.70;99.90;;;;;;6214019;23;20317;-72
2022/03/29 02:39:49;;;;;;;;;;;12.80;99.90;;;;;;6214680;23;19915;-71
2022/03/29 02:42:15;;;;;;;;;;;12.90;99.90;;;;;;6214439;23;19941;-72
2022/03/29 02:44:40;;;;;;;;;;;13.00;99.90;;;;;;6214249;23;19904;-72
2022/03/29 02:47:06;;;;;;;;;;;13.00;99.90;;;;;;6214056;23;19911;-72
2022/03/29 02:49:33;;;;;;;;;;;13.00;99.90;;;;;;6214436;23;19908;-73
2022/03/29 02:51:59;;;;;;;;;;;13.00;99.90;;;;;;6214299;23;19958;-71
2022/03/29 02:54:25;;;;;;;;;;;13.00;99.90;;;;;;6213924;23;19907;-72
2022/03/29 02:56:51;;;;;;;;;;;13.00;99.90;;;;;;6214048;23;20317;-73
2022/03/29 02:59:17;;;;;;;;;;;13.00;99.90;;;;;;6214672;23;19934;-72
2022/03/29 03:01:42;;;;;;;;;;;12.90;99.90;;;;;;6214395;23;19904;-73
2022/03/29 03:04:08;;;;;;;;;;;12.80;99.90;;;;;;6214647;23;19937;-72
2022/03/29 03:06:35;;;;;;;;;;;12.60;99.90;;;;;;6214155;23;19920;-72
2022/03/29 03:09:02;;;;;;;;;;;12.60;99.90;;;;;;6214382;23;20254;-73
2022/03/29 03:11:28;;;;;;;;;;;12.60;99.90;;;;;;6214615;23;19930;-72
2022/03/29 03:13:54;;;;;;;;;;;12.60;99.90;;;;;;6214985;23;19908;-72
2022/03/29 03:16:19;;;;;;;;;;;12.60;99.90;;;;;;6216636;23;19997;-73
2022/03/29 03:18:45;;;;;;;;;;;12.70;99.90;;;;;;6244838;23;20270;-73
2022/03/29 03:21:11;;;;;;;;;;;12.70;99.90;;;;;;6244433;23;19910;-73
2022/03/29 03:23:37;;;;;;;;;;;12.60;99.90;;;;;;6244746;23;19912;-73
2022/03/29 03:26:03;;;;;;;;;;;12.50;99.90;;;;;;6218233;23;20331;-73
2022/03/29 03:28:28;;;;;;;;;;;12.50;99.90;;;;;;6245541;23;19904;-72
2022/03/29 03:30:54;;;;;;;;;;;12.50;99.90;;;;;;6244747;23;19915;-72
2022/03/29 03:33:20;;;;;;;;;;;12.40;99.90;;;;;;6244988;23;19903;-72
2022/03/29 03:35:46;;;;;;;;;;;12.30;99.90;;;;;;6245035;23;20340;-72
2022/03/29 03:38:12;;;;;;;;;;;12.30;99.90;;;;;;6245230;23;19911;-72
2022/03/29 03:40:38;;;;;;;;;;;12.20;99.90;;;;;;6245117;23;19911;-72
2022/03/29 03:43:04;;;;;;;;;;;12.20;99.90;;;;;;6218040;23;19908;-72
2022/03/29 03:45:30;;;;;;;;;;;12.20;99.90;;;;;;6246482;23;20236;-72
2022/03/29 03:47:56;;;;;;;;;;;12.20;99.90;;;;;;6246931;23;19948;-73
2022/03/29 03:50:22;;;;;;;;;;;12.20;99.90;;;;;;6247308;23;19903;-73
2022/03/29 03:52:49;;;;;;;;;;;12.10;99.90;;;;;;6246883;23;19935;-73
2022/03/29 03:55:15;;;;;;;;;;;12.20;99.90;;;;;;6247252;23;19950;-71
2022/03/29 03:57:41;;;;;;;;;;;12.10;99.90;;;;;;6246886;23;19992;-73
2022/03/29 04:00:08;;;;;;;;;;;12.10;99.90;;;;;;6246045;23;20063;-69
2022/03/29 04:02:35;;;;;;;;;;;12.10;99.90;;;;;;6220235;23;19931;-73
2022/03/29 04:05:01;;;;;;;;;;;12.10;99.90;;;;;;6219863;23;20041;-71
2022/03/29 04:07:27;;;;;;;;;;;12.20;99.90;;;;;;6247081;23;20356;-74
2022/03/29 04:10:11;;;;;;;;;;;12.20;99.90;;;;;;6219829;23;20005;-72
2022/03/29 04:12:37;;;;;;;;;;;12.20;99.90;;;;;;6246553;23;19994;-72
2022/03/29 04:15:03;;;;;;;;;;;12.10;99.90;;;;;;6246645;23;19987;-72
2022/03/29 04:17:29;;;;;;;;;;;12.10;99.90;;;;;;6246952;23;19920;-72
2022/03/29 04:19:55;;;;;;;;;;;12.10;99.90;;;;;;6247354;23;19942;-72
2022/03/29 04:22:21;;;;;;;;;;;12.10;99.90;;;;;;6247457;23;19904;-72
2022/03/29 04:24:47;;;;;;;;;;;12.10;99.90;;;;;;6247768;23;19911;-73
2022/03/29 04:27:13;;;;;;;;;;;12.00;99.90;;;;;;6247397;23;20309;-73
2022/03/29 04:29:39;;;;;;;;;;;12.00;99.90;;;;;;6247896;23;19911;-73
2022/03/29 04:32:05;;;;;;;;;;;12.00;99.90;;;;;;6247454;23;19954;-72
2022/03/29 04:34:31;;;;;;;;;;;12.00;99.90;;;;;;6247450;23;19911;-73
2022/03/29 04:36:59;;;;;;;;;;;12.10;99.90;;;;;;6247341;23;20205;-73
2022/03/29 04:39:26;;;;;;;;;;;12.10;99.90;;;;;;6220081;23;19998;-72
2022/03/29 04:41:51;;;;;;;;;;;12.20;99.90;;;;;;6247160;23;20049;-72
2022/03/29 04:44:18;;;;;;;;;;;12.10;99.90;;;;;;6220131;23;19907;-71
2022/03/29 04:46:44;;;;;;;;;;;12.10;99.90;;;;;;6246777;23;19904;-73
2022/03/29 04:49:09;;;;;;;;;;;12.20;99.90;;;;;;6220462;23;19962;-72
2022/03/29 04:51:35;;;;;;;;;;;12.10;99.90;;;;;;6247522;23;19982;-72
2022/03/29 04:54:02;;;;;;;;;;;12.10;99.90;;;;;;6247050;23;19966;-73
2022/03/29 04:56:28;;;;;;;;;;;12.10;99.90;;;;;;6247295;23;20325;-72
2022/03/29 04:58:53;;;;;;;;;;;12.10;99.90;;;;;;6248075;23;20042;-72
2022/03/29 05:01:20;;;;;;;;;;;12.10;99.90;;;;;;6246984;23;19904;-73
2022/03/29 05:03:46;;;;;;;;;;;12.10;99.90;;;;;;6247022;23;19950;-73
2022/03/29 05:06:12;;;;;;;;;;;12.10;99.90;;;;;;6246798;23;19911;-71
2022/03/29 05:08:37;;;;;;;;;;;12.10;99.90;;;;;;6246383;23;20279;-72
2022/03/29 05:11:03;;;;;;;;;;;12.10;99.90;;;;;;6247061;23;19904;-73
2022/03/29 05:13:29;;;;;;;;;;;12.20;99.90;;;;;;6246878;23;19994;-71
2022/03/29 05:15:55;;;;;;;;;;;12.20;99.90;;;;;;6246601;23;19903;-72
2022/03/29 05:18:21;;;;;;;;;;;12.30;99.90;;;;;;6214897;23;19954;-72
2022/03/29 05:20:47;;;;;;;;;;;12.30;99.90;;;;;;6217270;23;20369;-72
2022/03/29 05:23:15;;;;;;;;;;;12.30;99.90;;;;;;6216762;23;19935;-72
2022/03/29 05:25:41;;;;;;;;;;;12.30;99.90;;;;;;6216606;23;19950;-73
2022/03/29 05:28:09;;;;;;;;;;;12.40;99.90;;;;;;6215880;23;19904;-72
2022/03/29 05:30:35;;;;;;;;;;;12.30;99.90;;;;;;6216031;23;20273;-73
2022/03/29 05:33:01;;;;;;;;;;;12.40;99.90;;;;;;6213754;23;19908;-73
2022/03/29 05:35:30;;;;;;;;;;;12.40;99.90;;;;;;6216316;23;19935;-73
2022/03/29 05:38:00;;;;;;;;;;;12.40;99.90;;;;;;6215761;23;19986;-72
2022/03/29 05:40:28;;;;;;;;;;;12.50;99.90;;;;;;6215618;23;19954;-72
2022/03/29 05:42:54;;;;;;;;;;;12.40;99.90;;;;;;6215244;23;19904;-73
2022/03/29 05:45:21;;;;;;;;;;;12.50;99.90;;;;;;6214574;23;19952;-73
2022/03/29 05:50:31;;;;;;;;;;;12.60;99.90;;;;;;6214210;23;19965;-72
2022/03/29 05:52:58;;;;;;;;;;;12.60;99.90;;;;;;6214122;23;19926;-72
2022/03/29 05:55:24;;;;;;;;;;;12.60;99.90;;;;;;6214327;23;19987;-73
2022/03/29 05:57:51;;;;;;;;;;;12.70;99.90;;;;;;6213420;23;20013;-73
2022/03/29 06:00:18;;;;;;;;;;;12.70;99.90;;;;;;6213345;23;19974;-73
2022/03/29 06:02:44;;;;;;;;;;;12.80;99.90;;;;;;6213501;23;20217;-74
2022/03/29 06:05:10;;;;;;;;;;;12.90;99.90;;;;;;6212439;23;19962;-71
2022/03/29 06:07:36;;;;;;;;;;;13.10;99.90;;;;;;6213251;23;20305;-71
2022/03/29 06:10:06;;;;;;;;;;;13.20;99.90;;;;;;6211937;23;19969;-74
2022/03/29 06:12:37;;;;;;;;;;;13.30;99.90;;;;;;6211513;23;19964;-75
2022/03/29 06:15:04;;;;;;;;;;;13.30;99.90;;;;;;6213088;23;19972;-70
2022/03/29 06:17:30;;;;;;;;;;;13.40;99.90;;;;;;6212242;23;20026;-75
2022/03/29 06:19:56;;;;;;;;;;;13.50;99.90;;;;;;6213963;23;20332;-74
2022/03/29 06:22:22;;;;;;;;;;;13.80;99.90;;;;;;6214433;23;19927;-75
2022/03/29 06:24:48;;;;;;;;;;;13.60;99.90;;;;;;6215087;23;19915;-75
2022/03/29 06:27:14;;;;;;;;;;;13.70;99.90;;;;;;6214800;23;19904;-74
2022/03/29 06:29:40;;;;;;;;;;;13.80;99.90;;;;;;6214673;23;19904;-73
2022/03/29 06:32:06;;;;;;;;;;;14.10;99.90;;;;;;6214997;23;19962;-74
2022/03/29 06:34:41;;;;;;;;;;;14.30;99.90;;;;;;6215384;23;19904;-76
2022/03/29 06:37:09;;;;;;;;;;;14.40;99.90;;;;;;6215349;23;19904;-74
2022/03/29 06:39:35;;;;;;;;;;;14.40;99.90;;;;;;6214728;23;19912;-74
2022/03/29 06:42:00;;;;;;;;;;;14.40;99.90;;;;;;6214830;23;19904;-75
2022/03/29 06:44:27;;;;;;;;;;;14.70;99.90;;;;;;6215482;23;19915;-74
2022/03/29 06:46:54;;;;;;;;;;;14.70;99.90;;;;;;6215185;23;19911;-73
2022/03/29 06:49:19;;;;;;;;;;;14.70;99.90;;;;;;6216102;23;20309;-75
2022/03/29 06:51:47;;;;;;;;;;;15.00;99.90;;;;;;6215322;23;19922;-72
2022/03/29 06:54:14;;;;;;;;;;;14.60;99.90;;;;;;6214842;23;20313;-74
2022/03/29 06:56:40;;;;;;;;;;;14.70;99.90;;;;;;6214988;23;19904;-74
2022/03/29 06:59:05;;;;;;;;;;;14.90;99.90;;;;;;6215638;23;20298;-74
2022/03/29 07:01:31;;;;;;;;;;;14.70;99.90;;;;;;6215380;23;19904;-73
2022/03/29 07:03:59;;;;;;;;;;;14.30;99.90;;;;;;6215379;23;19904;-75
2022/03/29 07:06:26;;;;;;;;;;;14.30;99.90;;;;;;6215309;23;19904;-72
2022/03/29 07:11:45;;;;;;;;;;;14.50;99.90;;;;;;6191068;23;20074;-68
2022/03/29 07:14:12;;;;;;;;;;;14.50;99.90;;;;;;6214494;23;19927;-69
2022/03/29 07:16:39;;;;;;;;;;;14.30;99.90;;;;;;6220708;23;20317;-69
2022/03/29 07:19:08;;;;;;;;;;;14.30;99.90;;;;;;6246059;23;19965;-70
2022/03/29 07:21:39;;;;;;;;;;;14.40;99.90;;;;;;6219239;23;19982;-69
2022/03/29 07:24:05;;;;;;;;;;;14.30;99.90;;;;;;6246700;23;19908;-70
2022/03/29 07:26:31;;;;;;;;;;;14.20;99.90;;;;;;6247983;23;19903;-70
2022/03/29 07:28:57;;;;;;;;;;;14.30;99.90;;;;;;6246948;23;19926;-70
2022/03/29 07:31:24;;;;;;;;;;;14.50;99.90;;;;;;6246752;23;19904;-69
2022/03/29 07:33:49;;;;;;;;;;;14.50;99.90;;;;;;6246888;23;20260;-69
2022/03/29 07:36:15;;;;;;;;;;;14.90;99.90;;;;;;6247904;23;19904;-69
2022/03/29 07:38:41;;;;;;;;;;;15.40;99.90;;;;;;6246919;23;19958;-71
2022/03/29 07:41:07;;;;;;;;;;;16.00;99.90;;;;;;6247039;23;20220;-70
2022/03/29 07:43:33;;;;;;;;;;;16.40;99.90;;;;;;6246381;23;19962;-71
2022/03/29 07:45:59;;;;;;;;;;;16.30;99.90;;;;;;6246947;23;19911;-69
2022/03/29 07:48:25;;;;;;;;;;;16.20;99.90;;;;;;6246494;23;19910;-70
2022/03/29 07:50:52;;;;;;;;;;;16.00;99.90;;;;;;6246125;23;19904;-70
2022/03/29 07:53:18;;;;;;;;;;;15.90;99.90;;;;;;6245787;23;19954;-70
2022/03/29 07:55:45;;;;;;;;;;;15.80;99.90;;;;;;6246143;23;19928;-69
2022/03/29 07:58:12;;;;;;;;;;;15.80;99.90;;;;;;6245676;23;19919;-70
2022/03/29 08:00:39;;;;;;;;;;;15.80;99.90;;;;;;6245948;23;19907;-70
2022/03/29 08:03:06;;;;;;;;;;;15.80;99.90;;;;;;6218875;23;19914;-70
2022/03/29 08:05:33;;;;;;;;;;;15.80;99.90;;;;;;6245871;23;19904;-69
2022/03/29 08:07:59;;;;;;;;;;;15.90;99.90;;;;;;6245933;23;19969;-69
2022/03/29 08:10:27;;;;;;;;;;;16.00;99.90;;;;;;6245845;23;19904;-70
2022/03/29 08:12:54;;;;;;;;;;;16.10;99.90;;;;;;6246060;23;19903;-69
2022/03/29 08:15:20;;;;;;;;;;;16.00;99.90;;;;;;6246073;23;20309;-69
2022/03/29 08:17:48;;;;;;;;;;;16.10;99.90;;;;;;6219116;23;19915;-70
2022/03/29 08:20:17;;;;;;;;;;;16.20;99.90;;;;;;6245728;23;20176;-69
2022/03/29 08:22:44;;;;;;;;;;;16.10;99.90;;;;;;6247070;23;20253;-71
2022/03/29 08:25:12;;;;;;;;;;;16.20;99.90;;;;;;6246851;23;19995;-71
2022/03/29 08:27:38;;;;;;;;;;;16.40;99.90;;;;;;6247118;23;19995;-70
2022/03/29 08:30:04;;;;;;;;;;;16.60;99.90;;;;;;6219098;23;19915;-69
2022/03/29 08:32:35;;;;;;;;;;;16.60;99.90;;;;;;6246713;23;19949;-69
2022/03/29 08:35:02;;;;;;;;;;;16.70;99.90;;;;;;6246225;23;19964;-69
2022/03/29 08:37:28;;;;;;;;;;;16.90;99.90;;;;;;6245908;23;19903;-70
2022/03/29 08:39:54;;;;;;;;;;;17.40;99.90;;;;;;6246111;23;19930;-68
2022/03/29 08:42:22;;;;;;;;;;;17.90;99.90;;;;;;6246500;23;19904;-71
2022/03/29 08:44:49;;;;;;;;;;;18.20;99.90;;;;;;6246119;23;20308;-70
2022/03/29 08:47:15;;;;;;;;;;;18.30;99.90;;;;;;6246025;23;19903;-70
2022/03/29 08:49:42;;;;;;;;;;;18.20;99.90;;;;;;6246486;23;19926;-69
2022/03/29 08:52:11;;;;;;;;;;;18.00;99.90;;;;;;6245916;23;19966;-69
2022/03/29 08:54:37;;;;;;;;;;;17.90;99.90;;;;;;6245681;23;19931;-68
2022/03/29 08:57:03;;;;;;;;;;;17.60;99.90;;;;;;6246710;23;19904;-68
2022/03/29 08:59:29;;;;;;;;;;;17.60;99.90;;;;;;6246272;23;19912;-70
2022/03/29 09:01:56;;;;;;;;;;;17.20;99.90;;;;;;6246277;23;20321;-69
2022/03/29 09:04:23;;;;;;;;;;;17.00;99.90;;;;;;6246010;23;19911;-70
2022/03/29 09:06:54;;;;;;;;;;;17.10;99.90;;;;;;6245747;23;19907;-69
2022/03/29 09:09:21;;;;;;;;;;;17.20;99.90;;;;;;6245785;23;20331;-69
2022/03/29 09:11:47;;;;;;;;;;;17.10;99.90;;;;;;6245916;23;19930;-70
2022/03/29 09:14:13;;;;;;;;;;;17.20;99.90;;;;;;6246152;23;19907;-71
2022/03/29 09:16:41;;;;;;;;;;;16.90;99.90;;;;;;6245691;23;19903;-69
2022/03/29 09:19:09;;;;;;;;;;;16.90;99.90;;;;;;6246069;23;20382;-71
2022/03/29 09:21:42;;;;;;;;;;;17.20;99.90;;;;;;6245499;23;19904;-71
2022/03/29 09:24:09;;;;;;;;;;;17.40;99.90;;;;;;6245618;23;19930;-71
2022/03/29 09:26:37;;;;;;;;;;;17.50;99.90;;;;;;6246302;23;20052;-70
2022/03/29 09:29:11;;;;;;;;;;;17.80;99.90;;;;;;6245561;23;19904;-71
2022/03/29 09:31:37;;;;;;;;;;;18.20;99.90;;;;;;6246033;23;19904;-72
2022/03/29 09:34:16;;;;;;;;;;;18.60;99.90;;;;;;6245826;23;19904;-69
2022/03/29 09:36:44;;;;;;;;;;;18.70;99.90;;;;;;6245493;23;19904;-71
2022/03/29 09:39:28;;;;;;;;;;;19.10;99.90;;;;;;6245485;23;19915;-71
2022/03/29 09:41:56;;;;;;;;;;;19.20;99.90;;;;;;6244861;23;19910;-70
2022/03/29 09:44:32;;;;;;;;;;;19.20;99.90;;;;;;6245209;23;19903;-71
2022/03/29 09:46:59;;;;;;;;;;;19.40;99.90;;;;;;6245737;23;19987;-71
2022/03/29 09:49:25;;;;;;;;;;;19.50;99.90;;;;;;6245020;23;19904;-70
2022/03/29 09:52:07;;;;;;;;;;;19.30;99.90;;;;;;6245409;23;19935;-69
2022/03/29 09:54:33;;;;;;;;;;;19.60;99.90;;;;;;6245426;23;19903;-69
2022/03/29 09:56:59;;;;;;;;;;;19.30;99.90;;;;;;6245872;23;19991;-70
2022/03/29 09:59:25;;;;;;;;;;;19.50;99.90;;;;;;6245302;23;20274;-69
2022/03/29 10:01:53;;;;;;;;;;;19.50;99.90;;;;;;6245057;23;19915;-70
2022/03/29 10:04:20;;;;;;;;;;;19.50;99.90;;;;;;6244848;23;19925;-70
2022/03/29 10:06:47;;;;;;;;;;;19.60;99.90;;;;;;6244842;23;20171;-70
2022/03/29 10:09:28;;;;;;;;;;;19.40;99.90;;;;;;6217541;23;19904;-71
2022/03/29 10:12:03;;;;;;;;;;;19.40;99.90;;;;;;6245263;23;19904;-70
2022/03/29 10:14:30;;;;;;;;;;;19.60;99.90;;;;;;6244840;23;19978;-70
2022/03/29 10:16:57;;;;;;;;;;;19.80;99.90;;;;;;6244660;23;19912;-69
2022/03/29 10:19:23;;;;;;;;;;;19.90;99.90;;;;;;6244322;23;19911;-72
2022/03/29 10:21:50;;;;;;;;;;;20.00;99.90;;;;;;6244487;23;19982;-70
2022/03/29 10:24:16;;;;;;;;;;;20.10;99.90;;;;;;6245100;23;20001;-67
2022/03/29 10:26:43;;;;;;;;;;;20.30;99.90;;;;;;6245262;23;19957;-70
2022/03/29 10:29:09;;;;;;;;;;;20.00;99.90;;;;;;6244977;23;19907;-70
2022/03/29 10:31:36;;;;;;;;;;;20.20;99.90;;;;;;6244570;23;19910;-71
2022/03/29 10:34:24;;;;;;;;;;;20.10;99.90;;;;;;6244849;23;20340;-72
2022/03/29 10:37:08;;;;;;;;;;;20.10;99.90;;;;;;6244957;23;19927;-72
2022/03/29 10:39:42;;;;;;;;;;;20.30;99.90;;;;;;6244488;23;19994;-70
2022/03/29 10:42:26;;;;;;;;;;;20.20;99.90;;;;;;6245145;23;19927;-71
2022/03/29 10:45:10;;;;;;;;;;;20.40;99.90;;;;;;6244053;23;19949;-70
2022/03/29 10:47:36;;;;;;;;;;;20.50;99.90;;;;;;6244373;23;19903;-72
2022/03/29 10:50:04;;;;;;;;;;;19.50;99.90;;;;;;6244080;23;20029;-71
2022/03/29 10:52:36;;;;;;;;;;;19.30;99.90;;;;;;6244721;23;19999;-71
2022/03/29 10:55:16;;;;;;;;;;;19.50;99.90;;;;;;6244658;23;19939;-70
2022/03/29 10:58:02;;;;;;;;;;;19.90;99.90;;;;;;6217616;23;20011;-69
2022/03/29 11:00:31;;;;;;;;;;;19.90;99.90;;;;;;6244321;23;19915;-72
2022/03/29 11:03:05;;;;;;;;;;;20.30;99.90;;;;;;6243201;23;19911;-72
2022/03/29 11:05:31;;;;;;;;;;;20.60;99.90;;;;;;6244169;23;20193;-72
2022/03/29 11:08:03;;;;;;;;;;;20.60;99.90;;;;;;6244887;23;19904;-70
2022/03/29 11:10:42;;;;;;;;;;;20.90;99.90;;;;;;6243970;23;19907;-69
2022/03/29 11:13:27;;;;;;;;;;;21.00;99.90;;;;;;6244392;23;19926;-70
2022/03/29 11:15:53;;;;;;;;;;;20.70;99.90;;;;;;6243987;23;19934;-71
2022/03/29 11:18:31;;;;;;;;;;;20.60;99.90;;;;;;6243513;23;19958;-71
2022/03/29 11:21:02;;;;;;;;;;;20.50;99.90;;;;;;6244337;23;19990;-70
2022/03/29 11:23:31;;;;;;;;;;;20.20;99.90;;;;;;6244835;23;19935;-70
2022/03/29 11:26:03;;;;;;;;;;;19.80;99.90;;;;;;6244940;23;20236;-70
2022/03/29 11:28:29;;;;;;;;;;;20.00;99.90;;;;;;6245039;23;19942;-69
2022/03/29 11:30:54;;;;;;;;;;;20.00;99.90;;;;;;6244710;23;19904;-71
2022/03/29 11:33:29;;;;;;;;;;;19.90;99.90;;;;;;6244677;23;19911;-70
2022/03/29 11:35:56;;;;;;;;;;;20.00;99.90;;;;;;6245440;23;19904;-69
2022/03/29 11:38:22;;;;;;;;;;;20.00;99.90;;;;;;6245143;23;19912;-70
2022/03/29 11:40:48;;;;;;;;;;;19.80;99.90;;;;;;6245002;23;19914;-70
2022/03/29 11:43:15;;;;;;;;;;;19.70;99.90;;;;;;6244866;23;19904;-70
2022/03/29 11:45:42;;;;;;;;;;;19.90;99.90;;;;;;6245738;23;19907;-71
2022/03/29 11:48:12;;;;;;;;;;;19.90;99.90;;;;;;6244660;23;19915;-71
2022/03/29 11:50:38;;;;;;;;;;;20.00;99.90;;;;;;6244144;23;19904;-69
2022/03/29 11:53:22;;;;;;;;;;;20.20;99.90;;;;;;6244895;23;19904;-70
2022/03/29 11:55:54;;;;;;;;;;;20.10;99.90;;;;;;6244993;23;19911;-69
2022/03/29 11:58:21;;;;;;;;;;;19.90;99.90;;;;;;6243590;23;19908;-70
2022/03/29 12:00:47;;;;;;;;;;;19.80;99.90;;;;;;6243528;23;19903;-69
2022/03/29 12:03:13;;;;;;;;;;;19.70;99.90;;;;;;6245243;23;19910;-70
2022/03/29 12:05:39;;;;;;;;;;;20.00;99.90;;;;;;6246536;23;19943;-67
2022/03/29 12:08:05;;;;;;;;;;;20.10;99.90;;;;;;6219199;23;19915;-67
2022/03/29 12:10:34;;;;;;;;;;;20.10;99.90;;;;;;6246854;23;19943;-68
2022/03/29 12:13:02;;;;;;;;;;;20.30;99.90;;;;;;6246706;23;19903;-68
2022/03/29 12:15:29;;;;;;;;;;;20.40;99.90;;;;;;6246564;23;20003;-67
2022/03/29 12:20:40;;;;;;;;;;;20.10;99.90;;;;;;6247645;23;20379;-67
2022/03/29 12:23:16;;;;;;;;;;;20.10;99.90;;;;;;6247716;23;19907;-67
2022/03/29 12:25:43;;;;;;;;;;;20.30;99.90;;;;;;6248200;23;19920;-69
2022/03/29 12:28:09;;;;;;;;;;;20.40;99.90;;;;;;6247591;23;19961;-68
2022/03/29 12:30:35;;;;;;;;;;;20.20;99.90;;;;;;6247743;23;19904;-68
2022/03/29 12:33:01;;;;;;;;;;;20.30;99.90;;;;;;6247538;23;19980;-68
2022/03/29 12:35:27;;;;;;;;;;;20.10;99.90;;;;;;6220601;23;19911;-69
2022/03/29 12:38:06;;;;;;;;;;;20.10;99.90;;;;;;6247717;23;19911;-69
2022/03/29 12:40:32;;;;;;;;;;;20.30;99.90;;;;;;6247685;23;19904;-68
2022/03/29 12:43:04;;;;;;;;;;;20.10;99.90;;;;;;6248018;23;19978;-68
2022/03/29 12:45:31;;;;;;;;;;;19.80;99.90;;;;;;6247081;23;20206;-69
2022/03/29 12:47:58;;;;;;;;;;;20.00;99.90;;;;;;6246786;23;19956;-67
2022/03/29 12:50:25;;;;;;;;;;;20.10;99.90;;;;;;6246509;23;19911;-69
2022/03/29 12:52:51;;;;;;;;;;;20.20;99.90;;;;;;6219786;23;19903;-69
2022/03/29 12:55:18;;;;;;;;;;;20.30;99.90;;;;;;6246634;23;19945;-70
2022/03/29 12:57:45;;;;;;;;;;;20.50;99.90;;;;;;6246844;23;19910;-69
2022/03/29 13:00:15;;;;;;;;;;;20.60;99.90;;;;;;6247295;23;19983;-69
2022/03/29 13:02:46;;;;;;;;;;;20.40;99.90;;;;;;6247075;23;20317;-69
2022/03/29 13:05:12;;;;;;;;;;;19.90;99.90;;;;;;6220085;23;19903;-66
2022/03/29 13:07:45;;;;;;;;;;;19.70;99.90;;;;;;6246753;23;19911;-70
2022/03/29 13:10:13;;;;;;;;;;;19.70;99.90;;;;;;6247280;23;19982;-68
2022/03/29 13:12:57;;;;;;;;;;;20.00;99.90;;;;;;6246702;23;19946;-70
2022/03/29 13:15:41;;;;;;;;;;;20.20;99.90;;;;;;6246571;23;19904;-69
2022/03/29 13:18:19;;;;;;;;;;;20.20;99.90;;;;;;6246730;23;19922;-68
2022/03/29 13:20:45;;;;;;;;;;;20.10;99.90;;;;;;6247079;23;19904;-67
2022/03/29 13:23:11;;;;;;;;;;;20.30;99.90;;;;;;6247150;23;19926;-68
2022/03/29 13:25:37;;;;;;;;;;;20.30;99.90;;;;;;6247002;23;20356;-70
2022/03/29 13:28:04;;;;;;;;;;;20.20;99.90;;;;;;6246700;23;19942;-68
2022/03/29 13:30:30;;;;;;;;;;;20.20;99.90;;;;;;6246864;23;19904;-71
2022/03/29 13:32:57;;;;;;;;;;;20.20;99.90;;;;;;6246937;23;19903;-71
2022/03/29 13:35:23;;;;;;;;;;;20.10;99.90;;;;;;6247693;23;19942;-68
2022/03/29 13:37:49;;;;;;;;;;;19.90;99.90;;;;;;6246978;23;19915;-68
2022/03/29 13:40:16;;;;;;;;;;;19.80;99.90;;;;;;6247083;23;20276;-69
2022/03/29 13:42:42;;;;;;;;;;;19.90;99.90;;;;;;6219935;23;20295;-68
2022/03/29 13:45:10;;;;;;;;;;;20.10;99.90;;;;;;6245641;23;19942;-66
2022/03/29 13:47:39;;;;;;;;;;;20.30;99.90;;;;;;6245172;23;19908;-70
2022/03/29 13:50:05;;;;;;;;;;;20.40;99.90;;;;;;6245069;23;19908;-69
2022/03/29 13:52:31;;;;;;;;;;;20.30;99.90;;;;;;6246433;23;19911;-67
2022/03/29 13:54:58;;;;;;;;;;;20.20;99.90;;;;;;6246349;23;19926;-65
2022/03/29 13:57:23;;;;;;;;;;;20.10;99.90;;;;;;6246445;23;19903;-69
2022/03/29 13:59:49;;;;;;;;;;;19.90;99.90;;;;;;6219397;23;19998;-69
2022/03/29 14:02:15;;;;;;;;;;;20.00;99.90;;;;;;6246906;23;19911;-69
2022/03/29 14:04:41;;;;;;;;;;;20.00;99.90;;;;;;6246187;23;19911;-71
2022/03/29 14:07:07;;;;;;;;;;;19.90;99.90;;;;;;6245777;23;19903;-71
2022/03/29 14:09:32;;;;;;;;;;;19.70;99.90;;;;;;6246165;23;19927;-70
2022/03/29 14:11:58;;;;;;;;;;;19.50;99.90;;;;;;6246049;23;19989;-70
2022/03/29 14:14:24;;;;;;;;;;;19.30;99.90;;;;;;6246499;23;19903;-69
2022/03/29 14:16:51;;;;;;;;;;;19.30;99.90;;;;;;6246031;23;19916;-69
2022/03/29 14:19:17;;;;;;;;;;;19.20;99.90;;;;;;6246371;23;19919;-67
2022/03/29 14:21:43;;;;;;;;;;;19.20;99.90;;;;;;6245709;23;19904;-70
2022/03/29 14:24:09;;;;;;;;;;;19.30;99.90;;;;;;6245891;23;20225;-71
2022/03/29 14:26:35;;;;;;;;;;;19.20;99.90;;;;;;6246067;23;19982;-69
2022/03/29 14:29:01;;;;;;;;;;;19.10;99.90;;;;;;6245306;23;20305;-70